Time;durP1;ratioP1;P1;durP2;ratioP2;P2;SDS_P1;SDS_P2;PMS_P1;PMS_P2;Temp;Humidity;BMP_temperature;BMP_pressure;BME280_temperature;BME280_humidity;BME280_pressure;Samples;Min_cycle;Max_cycle;Signal;HPM_P1;HPM_P2
2021/11/15 00:02:22;;;;;;;42.00;23.37;;;6.50;99.90;;;;;;5043785;28;20542;-66
2021/11/15 00:04:50;;;;;;;41.97;22.57;;;6.60;99.90;;;;;;5038518;28;20955;-66
2021/11/15 00:07:16;;;;;;;41.40;22.67;;;6.60;99.90;;;;;;5033416;28;20660;-67
2021/11/15 00:09:44;;;;;;;41.80;22.10;;;6.60;99.90;;;;;;5032530;28;20212;-67
2021/11/15 00:12:11;;;;;;;34.80;20.03;;;6.60;99.90;;;;;;5052019;28;20630;-66
2021/11/15 00:14:39;;;;;;;35.43;20.10;;;6.60;99.90;;;;;;5051571;28;20696;-66
2021/11/15 00:17:07;;;;;;;37.13;20.67;;;6.60;99.90;;;;;;5036569;28;20210;-65
2021/11/15 00:19:34;;;;;;;36.43;19.40;;;6.60;99.90;;;;;;5052025;28;20202;-66
2021/11/15 00:22:01;;;;;;;37.57;21.23;;;6.60;99.90;;;;;;5044315;28;20525;-66
2021/11/15 00:24:28;;;;;;;36.90;20.60;;;6.70;99.90;;;;;;5047708;28;20219;-66
2021/11/15 00:26:54;;;;;;;37.57;20.27;;;6.60;99.90;;;;;;5041702;28;20271;-67
2021/11/15 00:29:21;;;;;;;36.17;20.27;;;6.60;99.90;;;;;;5035102;28;20689;-66
2021/11/15 00:31:49;;;;;;;36.77;20.83;;;6.60;99.90;;;;;;5030730;28;20223;-66
2021/11/15 00:34:17;;;;;;;35.50;19.77;;;6.60;99.90;;;;;;5034018;28;20202;-67
2021/11/15 00:36:44;;;;;;;38.07;20.10;;;6.60;99.90;;;;;;5043531;28;20668;-66
2021/11/15 00:39:11;;;;;;;31.77;19.17;;;6.50;99.90;;;;;;5033802;28;20226;-66
2021/11/15 00:41:38;;;;;;;39.67;19.80;;;6.60;99.90;;;;;;5031980;28;20557;-67
2021/11/15 00:44:05;;;;;;;37.80;19.77;;;6.60;99.90;;;;;;5040991;28;20206;-67
2021/11/15 00:46:32;;;;;;;32.57;19.90;;;6.60;99.90;;;;;;5044592;28;20206;-67
2021/11/15 00:49:01;;;;;;;34.63;19.50;;;6.60;99.90;;;;;;5035985;28;20221;-67
2021/11/15 00:51:29;;;;;;;32.87;17.47;;;6.60;99.90;;;;;;5031542;28;20302;-67
2021/11/15 00:53:57;;;;;;;31.40;17.90;;;6.60;99.90;;;;;;5031871;28;20316;-66
2021/11/15 00:56:25;;;;;;;33.27;17.73;;;6.60;99.90;;;;;;5045015;28;20236;-67
2021/11/15 00:58:52;;;;;;;27.53;16.23;;;6.60;99.90;;;;;;5051905;28;20239;-67
2021/11/15 01:01:20;;;;;;;28.67;16.33;;;6.60;99.90;;;;;;5037879;28;20226;-67
2021/11/15 01:03:47;;;;;;;29.00;16.50;;;6.60;99.90;;;;;;5045930;28;20199;-68
2021/11/15 01:06:15;;;;;;;26.93;16.33;;;6.60;99.90;;;;;;5036088;28;20206;-66
2021/11/15 01:08:42;;;;;;;25.77;15.30;;;6.60;99.90;;;;;;5046020;28;20213;-66
2021/11/15 01:11:09;;;;;;;24.70;14.87;;;6.70;99.90;;;;;;5042380;28;20242;-67
2021/11/15 01:13:36;;;;;;;24.53;13.97;;;6.70;99.90;;;;;;5048738;28;20229;-67
2021/11/15 01:16:06;;;;;;;26.47;14.33;;;6.60;99.90;;;;;;5038198;28;20221;-67
2021/11/15 01:18:33;;;;;;;22.30;13.30;;;6.70;99.90;;;;;;5047868;28;20354;-67
2021/11/15 01:21:00;;;;;;;25.90;13.63;;;6.70;99.90;;;;;;5039855;28;20206;-66
2021/11/15 01:23:28;;;;;;;22.80;13.17;;;6.60;99.90;;;;;;5040236;28;20194;-66
2021/11/15 01:25:55;;;;;;;20.90;11.90;;;6.70;99.90;;;;;;5036866;28;20214;-67
2021/11/15 01:28:21;;;;;;;20.93;12.27;;;6.70;99.90;;;;;;5046910;28;20234;-66
2021/11/15 01:30:48;;;;;;;23.73;13.63;;;6.70;99.90;;;;;;5037649;28;20210;-66
2021/11/15 01:33:15;;;;;;;19.53;12.10;;;6.70;99.90;;;;;;5051615;28;20226;-67
2021/11/15 01:35:42;;;;;;;19.30;11.50;;;6.70;99.90;;;;;;5046304;28;20220;-66
2021/11/15 01:38:09;;;;;;;20.43;11.73;;;6.70;99.90;;;;;;5038173;28;20202;-67
2021/11/15 01:40:37;;;;;;;20.77;11.73;;;6.60;99.90;;;;;;5032691;28;20241;-67
2021/11/15 01:43:05;;;;;;;20.20;11.27;;;6.60;99.90;;;;;;5033765;28;20210;-66
2021/11/15 01:45:35;;;;;;;19.93;11.30;;;6.60;99.90;;;;;;5038252;28;20284;-66
2021/11/15 01:48:04;;;;;;;17.80;10.87;;;6.60;99.90;;;;;;5041340;28;20232;-66
2021/11/15 01:50:32;;;;;;;18.73;11.50;;;6.60;99.90;;;;;;5045419;28;20544;-66
2021/11/15 01:53:01;;;;;;;17.70;10.53;;;6.60;99.90;;;;;;5053118;28;20229;-67
2021/11/15 01:55:29;;;;;;;17.43;10.70;;;6.60;99.90;;;;;;5042945;28;20207;-65
2021/11/15 01:57:58;;;;;;;17.30;10.70;;;6.60;99.90;;;;;;5038529;28;20222;-67
2021/11/15 02:00:30;;;;;;;16.73;10.20;;;6.60;99.90;;;;;;5053381;28;20202;-67
2021/11/15 02:02:57;;;;;;;19.17;11.17;;;6.60;99.90;;;;;;5053719;28;20228;-67
2021/11/15 02:05:24;;;;;;;19.20;10.63;;;6.60;99.90;;;;;;5045259;28;20470;-67
2021/11/15 02:07:51;;;;;;;15.33;10.23;;;6.60;99.90;;;;;;5053063;28;20218;-66
2021/11/15 02:10:18;;;;;;;17.07;9.97;;;6.60;99.90;;;;;;5052539;28;20612;-67
2021/11/15 02:12:45;;;;;;;15.80;10.63;;;6.60;99.90;;;;;;5048882;28;20232;-66
2021/11/15 02:15:15;;;;;;;14.70;9.47;;;6.60;99.90;;;;;;5052815;28;20573;-67
2021/11/15 02:17:44;;;;;;;19.87;10.43;;;6.60;99.90;;;;;;5047567;28;20581;-66
2021/11/15 02:20:14;;;;;;;17.80;10.20;;;6.50;99.90;;;;;;5050542;28;20202;-66
2021/11/15 02:22:41;;;;;;;21.53;10.70;;;6.50;99.90;;;;;;5051570;28;20272;-66
2021/11/15 02:25:09;;;;;;;20.10;10.00;;;6.50;99.90;;;;;;5036433;28;20213;-66
2021/11/15 02:27:37;;;;;;;18.77;10.40;;;6.50;99.90;;;;;;5049948;28;20264;-67
2021/11/15 02:30:11;;;;;;;18.40;10.67;;;6.50;99.90;;;;;;5053544;28;20237;-66
2021/11/15 02:32:37;;;;;;;20.87;10.17;;;6.50;99.90;;;;;;5040201;28;20217;-67
2021/11/15 02:35:05;;;;;;;19.60;10.20;;;6.50;99.90;;;;;;5050035;28;20598;-65
2021/11/15 02:37:34;;;;;;;16.80;10.30;;;6.50;99.90;;;;;;5049965;28;20402;-65
2021/11/15 02:40:01;;;;;;;19.83;10.83;;;6.50;99.90;;;;;;5034413;28;20207;-67
2021/11/15 02:42:28;;;;;;;21.13;11.30;;;6.50;99.90;;;;;;5034371;28;20207;-66
2021/11/15 02:44:55;;;;;;;23.20;12.00;;;6.40;99.90;;;;;;5035391;28;20237;-65
2021/11/15 02:47:22;;;;;;;24.80;12.23;;;6.40;99.90;;;;;;5041303;28;20215;-65
2021/11/15 02:49:49;;;;;;;24.07;12.50;;;6.40;99.90;;;;;;5043051;28;20449;-66
2021/11/15 02:52:17;;;;;;;24.07;12.53;;;6.40;99.90;;;;;;5044305;28;20198;-65
2021/11/15 02:54:46;;;;;;;24.37;12.17;;;6.40;99.90;;;;;;5049606;28;20482;-67
2021/11/15 02:57:15;;;;;;;23.57;12.07;;;6.50;99.90;;;;;;5042208;28;20717;-66
2021/11/15 02:59:42;;;;;;;26.67;12.83;;;6.40;99.90;;;;;;5034536;28;20203;-67
2021/11/15 03:02:10;;;;;;;31.57;12.50;;;6.40;99.90;;;;;;5048122;28;20206;-66
2021/11/15 03:04:37;;;;;;;29.50;13.20;;;6.40;99.90;;;;;;5047496;28;20198;-67
2021/11/15 03:07:05;;;;;;;23.33;12.27;;;6.30;99.90;;;;;;5045470;28;20408;-67
2021/11/15 03:09:32;;;;;;;26.20;13.13;;;6.30;99.90;;;;;;5041391;28;20213;-67
2021/11/15 03:12:00;;;;;;;29.83;13.53;;;6.30;99.90;;;;;;5047176;28;20230;-67
2021/11/15 03:14:27;;;;;;;34.87;13.53;;;6.20;99.90;;;;;;5039413;28;20667;-67
2021/11/15 03:16:54;;;;;;;31.27;14.83;;;6.20;99.90;;;;;;5048391;28;20220;-66
2021/11/15 03:19:20;;;;;;;33.97;14.77;;;6.20;99.90;;;;;;5043795;28;20202;-67
2021/11/15 03:21:47;;;;;;;38.40;15.30;;;6.20;99.90;;;;;;5034283;28;20697;-66
2021/11/15 03:24:14;;;;;;;31.40;14.47;;;6.20;99.90;;;;;;5038808;28;20215;-68
2021/11/15 03:26:41;;;;;;;30.07;13.63;;;6.20;99.90;;;;;;5046265;28;20315;-66
2021/11/15 03:29:09;;;;;;;30.27;14.57;;;6.20;99.90;;;;;;5034062;28;20199;-66
2021/11/15 03:31:37;;;;;;;37.27;16.10;;;6.20;99.90;;;;;;5043886;28;20213;-67
2021/11/15 03:34:06;;;;;;;34.50;15.73;;;6.20;99.90;;;;;;5039815;28;20226;-66
2021/11/15 03:36:34;;;;;;;40.43;16.50;;;6.20;99.90;;;;;;5033441;28;20273;-67
2021/11/15 03:39:01;;;;;;;33.97;14.60;;;6.20;99.90;;;;;;5033532;28;20210;-66
2021/11/15 03:41:30;;;;;;;32.13;16.17;;;6.20;99.90;;;;;;5042377;28;20221;-66
2021/11/15 03:43:57;;;;;;;31.10;15.90;;;6.30;99.90;;;;;;5034197;28;20202;-67
2021/11/15 03:46:25;;;;;;;37.30;15.57;;;6.20;99.90;;;;;;5048828;28;20212;-66
2021/11/15 03:48:52;;;;;;;39.27;16.13;;;6.20;99.90;;;;;;5045632;28;20261;-65
2021/11/15 03:51:20;;;;;;;37.93;16.40;;;6.20;99.90;;;;;;5036250;28;20222;-66
2021/11/15 03:53:47;;;;;;;34.10;15.27;;;6.20;99.90;;;;;;5042617;28;20236;-67
2021/11/15 03:56:17;;;;;;;36.23;15.03;;;6.10;99.90;;;;;;5052240;28;20226;-65
2021/11/15 03:58:46;;;;;;;35.77;15.40;;;6.20;99.90;;;;;;5053360;28;20653;-66
2021/11/15 04:01:14;;;;;;;38.17;17.70;;;6.20;99.90;;;;;;5039858;28;20217;-65
2021/11/15 04:03:45;;;;;;;36.23;16.90;;;6.20;99.90;;;;;;5033047;28;20202;-65
2021/11/15 04:06:21;;;;;;;41.77;17.90;;;6.10;99.90;;;;;;5031874;28;20697;-66
2021/11/15 04:08:49;;;;;;;39.50;17.63;;;6.20;99.90;;;;;;5032588;28;20850;-66
2021/11/15 04:11:19;;;;;;;38.30;17.07;;;6.10;99.90;;;;;;5044817;28;20248;-66
2021/11/15 04:13:48;;;;;;;39.80;18.70;;;6.20;99.90;;;;;;5047200;28;20708;-65
2021/11/15 04:16:18;;;;;;;40.67;18.23;;;6.10;99.90;;;;;;5038424;28;20264;-65
2021/11/15 04:18:51;;;;;;;39.63;17.80;;;6.10;99.90;;;;;;5043117;28;20215;-65
2021/11/15 04:21:19;;;;;;;43.10;19.33;;;6.10;99.90;;;;;;5032381;28;20203;-66
2021/11/15 04:23:47;;;;;;;44.37;19.60;;;6.10;99.90;;;;;;5032103;28;20207;-66
2021/11/15 04:26:14;;;;;;;49.00;19.53;;;6.10;99.90;;;;;;5032985;28;20206;-66
2021/11/15 04:28:41;;;;;;;49.07;18.70;;;6.10;99.90;;;;;;5034259;28;20207;-67
2021/11/15 04:31:08;;;;;;;40.43;17.87;;;6.20;99.90;;;;;;5044637;28;20207;-66
2021/11/15 04:33:35;;;;;;;43.33;19.03;;;6.10;99.90;;;;;;5042304;28;20234;-65
2021/11/15 04:36:05;;;;;;;43.57;19.40;;;6.10;99.90;;;;;;5032287;28;20213;-67
2021/11/15 04:38:32;;;;;;;41.60;18.47;;;6.10;99.90;;;;;;5033122;28;20296;-66
2021/11/15 04:40:59;;;;;;;39.73;17.83;;;6.10;99.90;;;;;;5037023;28;20198;-65
2021/11/15 04:43:26;;;;;;;42.17;18.97;;;6.10;99.90;;;;;;5041669;28;20663;-65
2021/11/15 04:45:53;;;;;;;43.43;19.23;;;6.20;99.90;;;;;;5038597;28;20214;-67
2021/11/15 04:48:20;;;;;;;45.17;19.37;;;6.10;99.90;;;;;;5041306;28;20206;-65
2021/11/15 04:50:47;;;;;;;37.00;16.80;;;6.20;99.90;;;;;;5043724;28;20297;-67
2021/11/15 04:53:15;;;;;;;39.83;18.50;;;6.20;99.90;;;;;;5045761;28;20226;-65
2021/11/15 04:55:42;;;;;;;40.97;18.40;;;6.20;99.90;;;;;;5041571;28;20671;-66
2021/11/15 04:58:09;;;;;;;41.90;18.70;;;6.20;99.90;;;;;;5036875;28;20229;-66
2021/11/15 05:00:38;;;;;;;48.57;20.10;;;6.10;99.90;;;;;;5051860;28;20210;-66
2021/11/15 05:03:05;;;;;;;40.27;19.73;;;6.10;99.90;;;;;;5036867;28;20210;-65
2021/11/15 05:05:33;;;;;;;43.70;18.67;;;6.10;99.90;;;;;;5036856;28;20675;-65
2021/11/15 05:08:00;;;;;;;50.20;21.50;;;6.10;99.90;;;;;;5046708;28;20244;-66
2021/11/15 05:10:30;;;;;;;46.83;18.77;;;6.10;99.90;;;;;;5049480;28;20226;-65
2021/11/15 05:12:58;;;;;;;50.53;21.70;;;6.10;99.90;;;;;;5051387;28;20210;-66
2021/11/15 05:15:26;;;;;;;54.07;22.83;;;6.00;99.90;;;;;;5035091;28;20206;-66
2021/11/15 05:17:53;;;;;;;54.13;23.50;;;6.00;99.90;;;;;;5033623;28;20207;-66
2021/11/15 05:20:21;;;;;;;50.30;21.23;;;6.00;99.90;;;;;;5036026;28;20574;-66
2021/11/15 05:22:49;;;;;;;50.37;22.70;;;6.00;99.90;;;;;;5035210;28;20210;-65
2021/11/15 05:25:16;;;;;;;50.33;21.37;;;6.00;99.90;;;;;;5035379;28;20738;-67
2021/11/15 05:27:45;;;;;;;49.53;22.40;;;6.00;99.90;;;;;;5043492;28;20210;-66
2021/11/15 05:30:15;;;;;;;47.37;21.40;;;6.00;99.90;;;;;;5046374;28;20199;-65
2021/11/15 05:32:43;;;;;;;65.10;25.03;;;6.00;99.90;;;;;;5036083;28;20229;-65
2021/11/15 05:35:10;;;;;;;58.13;24.20;;;6.00;99.90;;;;;;5048259;28;20232;-67
2021/11/15 05:37:37;;;;;;;64.17;25.80;;;6.00;99.90;;;;;;5042930;28;20210;-66
2021/11/15 05:40:06;;;;;;;61.03;24.27;;;6.00;99.90;;;;;;5035242;28;20211;-64
2021/11/15 05:42:33;;;;;;;63.60;25.83;;;6.00;99.90;;;;;;5034485;28;20211;-64
2021/11/15 05:45:02;;;;;;;65.27;24.73;;;6.00;99.90;;;;;;5034934;28;20206;-65
2021/11/15 05:47:28;;;;;;;62.50;24.33;;;6.00;99.90;;;;;;5037883;28;20297;-66
2021/11/15 05:49:55;;;;;;;67.17;25.40;;;6.00;99.90;;;;;;5047597;28;20218;-67
2021/11/15 05:52:23;;;;;;;59.67;24.30;;;6.00;99.90;;;;;;5043802;28;20414;-65
2021/11/15 05:54:50;;;;;;;61.93;25.30;;;6.00;99.90;;;;;;5050972;28;20245;-65
2021/11/15 05:57:17;;;;;;;59.03;26.07;;;6.00;99.90;;;;;;5044879;28;20726;-66
2021/11/15 05:59:44;;;;;;;54.97;24.83;;;6.00;99.90;;;;;;5036105;28;20217;-66
2021/11/15 06:02:12;;;;;;;61.23;25.20;;;5.90;99.90;;;;;;5045548;28;20233;-66
2021/11/15 06:04:39;;;;;;;59.57;25.67;;;5.90;99.90;;;;;;5041515;28;20207;-66
2021/11/15 06:07:06;;;;;;;58.47;26.13;;;5.90;99.90;;;;;;5035398;28;20584;-67
2021/11/15 06:09:33;;;;;;;60.33;26.43;;;5.90;99.90;;;;;;5034592;28;20691;-66
2021/11/15 06:12:00;;;;;;;62.47;26.57;;;5.90;99.90;;;;;;5049234;28;20245;-66
2021/11/15 06:14:27;;;;;;;54.13;24.97;;;5.90;99.90;;;;;;5036936;28;20318;-66
2021/11/15 06:16:53;;;;;;;62.00;24.50;;;5.90;99.90;;;;;;5044978;28;20584;-67
2021/11/15 06:19:22;;;;;;;59.30;26.97;;;5.90;99.90;;;;;;5046151;28;20210;-67
2021/11/15 06:21:48;;;;;;;59.17;25.30;;;5.90;99.90;;;;;;5033293;28;20209;-66
2021/11/15 06:24:15;;;;;;;58.17;25.90;;;5.90;99.90;;;;;;5035346;28;20202;-66
2021/11/15 06:26:42;;;;;;;54.90;25.40;;;5.90;99.90;;;;;;5040684;28;20206;-66
2021/11/15 06:29:09;;;;;;;59.70;25.63;;;5.90;99.90;;;;;;5038699;28;20211;-66
2021/11/15 06:31:36;;;;;;;50.17;24.77;;;5.90;99.90;;;;;;5042755;28;20340;-66
2021/11/15 06:34:03;;;;;;;54.33;23.20;;;5.90;99.90;;;;;;5037817;28;20224;-66
2021/11/15 06:36:31;;;;;;;58.43;24.13;;;6.00;99.90;;;;;;5051530;28;20206;-66
2021/11/15 06:38:59;;;;;;;56.63;24.73;;;6.00;99.90;;;;;;5038066;28;20209;-66
2021/11/15 06:41:26;;;;;;;53.03;24.10;;;6.00;99.90;;;;;;5051683;28;20707;-66
2021/11/15 06:43:53;;;;;;;51.77;24.43;;;6.00;99.90;;;;;;5039367;28;20647;-67
2021/11/15 06:46:20;;;;;;;55.33;24.80;;;6.00;99.90;;;;;;5040549;28;20210;-66
2021/11/15 06:48:47;;;;;;;51.40;24.60;;;6.00;99.90;;;;;;5049389;28;20209;-66
2021/11/15 06:51:14;;;;;;;46.53;23.43;;;6.10;99.90;;;;;;5039018;28;20213;-67
2021/11/15 06:53:45;;;;;;;45.47;22.60;;;6.00;99.90;;;;;;5041387;28;20205;-66
2021/11/15 06:56:12;;;;;;;50.83;23.40;;;6.00;99.90;;;;;;5039349;28;20260;-66
2021/11/15 06:58:38;;;;;;;46.67;22.63;;;6.00;99.90;;;;;;5034593;28;20206;-66
2021/11/15 07:01:06;;;;;;;44.30;22.50;;;6.00;99.90;;;;;;5045396;28;20206;-68
2021/11/15 07:03:33;;;;;;;46.03;23.60;;;6.00;99.90;;;;;;5048186;28;20198;-67
2021/11/15 07:06:00;;;;;;;50.43;23.20;;;6.10;99.90;;;;;;5042531;28;20593;-66
2021/11/15 07:08:27;;;;;;;47.90;24.07;;;6.10;99.90;;;;;;5036305;28;20217;-66
2021/11/15 07:10:56;;;;;;;43.37;22.73;;;6.10;99.90;;;;;;5035888;28;20242;-67
2021/11/15 07:13:22;;;;;;;51.03;23.97;;;6.10;99.90;;;;;;5047620;28;20205;-66
2021/11/15 07:15:49;;;;;;;47.73;23.13;;;6.10;99.90;;;;;;5039019;28;20228;-67
2021/11/15 07:18:19;;;;;;;43.83;22.90;;;6.00;99.90;;;;;;5042604;28;20701;-66
2021/11/15 07:20:47;;;;;;;46.43;24.03;;;6.00;99.90;;;;;;5040569;28;20234;-66
2021/11/15 07:23:14;;;;;;;44.47;21.90;;;6.00;99.90;;;;;;5037933;28;20729;-67
2021/11/15 07:25:41;;;;;;;41.33;22.37;;;6.00;99.90;;;;;;5052225;28;20201;-67
2021/11/15 07:28:10;;;;;;;43.20;23.47;;;5.90;99.90;;;;;;5047711;28;20696;-68
2021/11/15 07:30:38;;;;;;;42.30;21.70;;;5.90;99.90;;;;;;5052193;28;20213;-68
2021/11/15 07:33:05;;;;;;;41.57;21.80;;;5.90;99.90;;;;;;5053774;28;20210;-67
2021/11/15 07:35:32;;;;;;;42.33;21.53;;;5.80;99.90;;;;;;5050095;28;20309;-66
2021/11/15 07:37:59;;;;;;;41.73;22.13;;;5.80;99.90;;;;;;5053167;28;20212;-65
2021/11/15 07:40:26;;;;;;;41.57;21.83;;;5.90;99.90;;;;;;5041831;28;20636;-64
2021/11/15 07:42:53;;;;;;;43.90;22.50;;;5.80;99.90;;;;;;5050578;28;20217;-66
2021/11/15 07:45:21;;;;;;;38.87;21.33;;;5.80;99.90;;;;;;5041609;28;20266;-65
2021/11/15 07:47:49;;;;;;;39.57;21.80;;;5.70;99.90;;;;;;5051106;28;20210;-66
2021/11/15 07:50:16;;;;;;;45.17;21.90;;;5.70;99.90;;;;;;5042328;28;20198;-65
2021/11/15 07:52:43;;;;;;;37.67;20.43;;;5.70;99.90;;;;;;5051167;28;20567;-66
2021/11/15 07:55:13;;;;;;;39.23;19.47;;;5.70;99.90;;;;;;5051644;28;20248;-66
2021/11/15 07:57:41;;;;;;;37.20;19.60;;;5.70;99.90;;;;;;5041887;28;20230;-67
2021/11/15 08:00:11;;;;;;;36.17;20.37;;;5.60;99.90;;;;;;5054106;28;20256;-65
2021/11/15 08:02:40;;;;;;;33.23;19.07;;;5.60;99.90;;;;;;5051155;28;20218;-65
2021/11/15 08:05:08;;;;;;;34.20;20.30;;;5.60;99.90;;;;;;5054063;28;20245;-67
2021/11/15 08:07:35;;;;;;;37.10;20.17;;;5.60;99.90;;;;;;5047267;28;20549;-66
2021/11/15 08:10:04;;;;;;;37.87;20.40;;;5.60;99.90;;;;;;5051792;28;20288;-69
2021/11/15 08:12:35;;;;;;;33.93;19.63;;;5.50;99.90;;;;;;5037273;28;20286;-66
2021/11/15 08:15:06;;;;;;;34.30;19.23;;;5.50;99.90;;;;;;5049318;28;20210;-65
2021/11/15 08:17:33;;;;;;;38.00;21.73;;;5.50;99.90;;;;;;5054311;28;20206;-66
2021/11/15 08:20:03;;;;;;;33.80;20.43;;;5.60;99.90;;;;;;5050874;28;20713;-67
2021/11/15 08:22:30;;;;;;;36.77;19.87;;;5.60;99.90;;;;;;5050633;28;20210;-66
2021/11/15 08:25:39;;;;;;;35.93;20.90;;;5.60;99.90;;;;;;5052617;28;20202;-65
2021/11/15 08:28:06;;;;;;;36.10;19.83;;;5.60;99.90;;;;;;5002682;28;20285;-66
2021/11/15 08:30:33;;;;;;;31.33;18.17;;;5.60;99.90;;;;;;5052729;28;20241;-64
2021/11/15 08:33:00;;;;;;;32.70;18.70;;;5.60;99.90;;;;;;5052945;28;20213;-68
2021/11/15 08:35:29;;;;;;;35.30;20.17;;;5.50;99.90;;;;;;5052860;28;20678;-66
2021/11/15 08:38:33;;;;;;;32.87;19.07;;;4.60;99.90;;;;;;5052530;28;20225;-65
2021/11/15 08:41:00;;;;;;;31.67;18.60;;;5.60;99.90;;;;;;5039183;28;20198;-66
2021/11/15 08:43:27;;;;;;;32.27;18.00;;;5.50;99.90;;;;;;5046448;28;20238;-67
2021/11/15 08:45:53;;;;;;;34.93;20.10;;;5.60;99.90;;;;;;5051983;28;20275;-66
2021/11/15 08:48:21;;;;;;;34.80;19.13;;;5.60;99.90;;;;;;5050437;28;20673;-68
2021/11/15 08:50:49;;;;;;;34.67;17.80;;;5.70;99.90;;;;;;5044112;28;20234;-65
2021/11/15 08:53:16;;;;;;;32.87;18.33;;;5.60;99.90;;;;;;5037347;28;20245;-66
2021/11/15 08:55:43;;;;;;;35.70;19.63;;;5.70;99.90;;;;;;5038563;28;20738;-66
2021/11/15 08:58:10;;;;;;;31.13;18.70;;;5.70;99.90;;;;;;5046029;28;20218;-66
2021/11/15 09:00:40;;;;;;;28.97;17.23;;;5.70;99.90;;;;;;5045085;28;20218;-65
2021/11/15 09:03:07;;;;;;;30.23;17.00;;;5.70;99.90;;;;;;5050804;28;20641;-63
2021/11/15 09:05:34;;;;;;;30.93;17.37;;;5.70;99.90;;;;;;5055463;28;20206;-64
2021/11/15 09:08:02;;;;;;;31.30;17.83;;;5.70;99.90;;;;;;5052969;28;20209;-66
2021/11/15 09:10:29;;;;;;;31.93;18.27;;;5.70;99.90;;;;;;5049191;28;20226;-65
2021/11/15 09:12:56;;;;;;;30.57;17.03;;;5.70;99.90;;;;;;5056919;28;20210;-65
2021/11/15 09:15:23;;;;;;;31.83;17.30;;;5.70;99.90;;;;;;5055498;28;20705;-67
2021/11/15 09:17:49;;;;;;;32.87;17.77;;;5.80;99.90;;;;;;5054570;28;20232;-65
2021/11/15 09:20:16;;;;;;;29.70;17.87;;;5.70;99.90;;;;;;5054201;28;20218;-65
2021/11/15 09:22:44;;;;;;;30.30;18.17;;;5.70;99.90;;;;;;5049127;28;20211;-66
2021/11/15 09:25:13;;;;;;;30.20;17.10;;;5.70;99.90;;;;;;5041996;28;20206;-65
2021/11/15 09:27:41;;;;;;;26.23;16.97;;;5.70;99.90;;;;;;5045568;28;20238;-63
2021/11/15 09:30:10;;;;;;;33.50;17.23;;;5.70;99.90;;;;;;5055693;28;20210;-66
2021/11/15 09:32:38;;;;;;;38.60;18.70;;;5.70;99.90;;;;;;5043400;28;20209;-67
2021/11/15 09:35:06;;;;;;;37.87;20.07;;;5.70;99.90;;;;;;5054992;28;20320;-65
2021/11/15 09:37:34;;;;;;;31.00;18.50;;;5.70;99.90;;;;;;5044429;28;20198;-64
2021/11/15 09:40:01;;;;;;;31.53;18.33;;;5.70;99.90;;;;;;5053528;28;20202;-67
2021/11/15 09:42:29;;;;;;;31.73;18.30;;;5.80;99.90;;;;;;5048819;28;20803;-66
2021/11/15 09:44:56;;;;;;;28.93;17.40;;;5.80;99.90;;;;;;5039185;28;20207;-67
2021/11/15 09:47:23;;;;;;;30.13;17.67;;;5.90;99.90;;;;;;5050565;28;20642;-66
2021/11/15 09:49:51;;;;;;;33.93;19.87;;;5.80;99.90;;;;;;5039845;28;20207;-66
2021/11/15 09:52:18;;;;;;;33.13;18.23;;;5.80;99.90;;;;;;5035067;28;20221;-66
2021/11/15 09:54:45;;;;;;;31.40;19.20;;;5.80;99.90;;;;;;5034497;28;20213;-67
2021/11/15 09:57:15;;;;;;;30.03;17.10;;;5.90;99.90;;;;;;5036609;28;20226;-66
2021/11/15 09:59:44;;;;;;;29.37;17.87;;;5.80;99.90;;;;;;5045139;28;20206;-65
2021/11/15 10:02:11;;;;;;;30.20;18.00;;;5.90;99.90;;;;;;5037563;28;20210;-67
2021/11/15 10:04:38;;;;;;;28.97;17.67;;;5.90;99.90;;;;;;5040060;28;20297;-67
2021/11/15 10:07:06;;;;;;;28.43;16.40;;;5.80;99.90;;;;;;5034999;28;20215;-66
2021/11/15 10:09:34;;;;;;;30.50;17.07;;;5.80;99.90;;;;;;5047046;28;20512;-65
2021/11/15 10:12:09;;;;;;;32.23;17.97;;;5.90;99.90;;;;;;5053299;28;20234;-65
2021/11/15 10:14:36;;;;;;;29.97;17.87;;;5.80;99.90;;;;;;5043671;28;20212;-66
2021/11/15 10:17:05;;;;;;;28.83;16.97;;;5.90;99.90;;;;;;5034138;28;20198;-66
2021/11/15 10:19:34;;;;;;;32.10;18.50;;;5.90;99.90;;;;;;5035910;28;20199;-66
2021/11/15 10:22:04;;;;;;;30.77;17.70;;;5.90;99.90;;;;;;5034912;28;20199;-65
2021/11/15 10:24:36;;;;;;;28.83;17.83;;;5.90;99.90;;;;;;5045860;28;20566;-66
2021/11/15 10:27:06;;;;;;;26.77;16.73;;;5.90;99.90;;;;;;5046643;28;20203;-67
2021/11/15 10:29:36;;;;;;;31.67;18.20;;;5.90;99.90;;;;;;5037110;28;20561;-65
2021/11/15 10:32:06;;;;;;;27.53;15.80;;;6.00;99.90;;;;;;5049621;28;20209;-66
2021/11/15 10:34:37;;;;;;;30.40;17.13;;;6.00;99.90;;;;;;5048804;28;20202;-66
2021/11/15 10:37:11;;;;;;;29.80;17.30;;;6.00;99.90;;;;;;5039728;28;20231;-65
2021/11/15 10:39:44;;;;;;;27.37;16.87;;;6.00;99.90;;;;;;5049073;28;20209;-67
2021/11/15 10:42:14;;;;;;;27.00;16.70;;;6.00;99.90;;;;;;5040813;28;20210;-66
2021/11/15 10:45:00;;;;;;;29.93;15.83;;;5.90;99.90;;;;;;5034980;28;20289;-67
2021/11/15 10:47:31;;;;;;;30.57;16.73;;;6.00;99.90;;;;;;5034902;28;20590;-65
2021/11/15 10:50:06;;;;;;;26.93;16.10;;;6.00;99.90;;;;;;5035080;28;20199;-66
2021/11/15 10:52:35;;;;;;;30.73;16.37;;;6.10;99.90;;;;;;5042317;28;20612;-65
2021/11/15 10:55:04;;;;;;;25.20;15.43;;;6.10;99.90;;;;;;5038025;28;20247;-67
2021/11/15 10:57:43;;;;;;;26.70;16.47;;;6.10;99.90;;;;;;5046340;28;20226;-66
2021/11/15 11:00:20;;;;;;;28.00;17.07;;;6.10;99.90;;;;;;5037299;28;20289;-66
2021/11/15 11:02:50;;;;;;;27.40;16.97;;;6.10;99.90;;;;;;5050930;28;20644;-65
2021/11/15 11:05:18;;;;;;;24.60;15.37;;;6.10;99.90;;;;;;5053109;28;20323;-67
2021/11/15 11:07:47;;;;;;;26.73;15.83;;;6.10;99.90;;;;;;5046310;28;20272;-65
2021/11/15 11:10:16;;;;;;;28.47;17.53;;;6.10;99.90;;;;;;5051798;28;20623;-66
2021/11/15 11:12:56;;;;;;;26.97;15.47;;;6.20;99.90;;;;;;5044152;28;20424;-63
2021/11/15 11:15:28;;;;;;;30.20;16.77;;;6.20;99.90;;;;;;5039909;28;20586;-65
2021/11/15 11:18:03;;;;;;;28.90;16.67;;;6.20;99.90;;;;;;5038931;28;20195;-63
2021/11/15 11:21:01;;;;;;;25.33;15.60;;;6.20;99.90;;;;;;5039005;28;20232;-62
2021/11/15 11:23:44;;;;;;;28.67;15.23;;;6.20;99.90;;;;;;5038164;28;20202;-64
2021/11/15 11:26:12;;;;;;;25.17;15.43;;;6.20;99.90;;;;;;5043259;28;20198;-64
2021/11/15 11:28:42;;;;;;;28.67;15.27;;;6.20;99.90;;;;;;5038348;28;20203;-63
2021/11/15 11:31:13;;;;;;;27.20;15.67;;;6.20;99.90;;;;;;5049383;28;21373;-65
2021/11/15 11:33:42;;;;;;;23.27;14.50;;;6.20;99.90;;;;;;5045225;28;20206;-63
2021/11/15 11:36:11;;;;;;;27.03;15.80;;;6.20;99.90;;;;;;5039347;28;20646;-65
2021/11/15 11:38:39;;;;;;;25.37;14.97;;;6.20;99.90;;;;;;5046789;28;20205;-64
2021/11/15 11:41:07;;;;;;;25.63;14.50;;;6.30;99.90;;;;;;5045178;28;20206;-64
2021/11/15 11:43:34;;;;;;;26.83;15.10;;;6.30;99.90;;;;;;5047818;28;20576;-64
2021/11/15 11:46:01;;;;;;;26.10;16.03;;;6.30;99.90;;;;;;5049537;28;20255;-63
2021/11/15 11:48:28;;;;;;;23.50;15.03;;;6.30;99.90;;;;;;5049186;28;20205;-63
2021/11/15 11:50:58;;;;;;;24.40;15.90;;;6.30;99.90;;;;;;5044063;28;20207;-63
2021/11/15 11:53:28;;;;;;;23.97;14.60;;;6.30;99.90;;;;;;5044270;28;20216;-63
2021/11/15 11:55:56;;;;;;;26.40;14.87;;;6.30;99.90;;;;;;5050696;28;20233;-64
2021/11/15 11:58:24;;;;;;;25.33;15.03;;;6.30;99.90;;;;;;5043078;28;20198;-65
2021/11/15 12:00:54;;;;;;;27.10;16.50;;;6.40;99.90;;;;;;5039312;28;20264;-65
2021/11/15 12:03:23;;;;;;;26.43;16.97;;;6.40;99.90;;;;;;5044359;28;20210;-64
2021/11/15 12:05:50;;;;;;;26.50;15.03;;;6.50;99.90;;;;;;5034388;28;20648;-62
2021/11/15 12:08:19;;;;;;;27.30;16.17;;;6.50;99.90;;;;;;5038985;28;20210;-63
2021/11/15 12:10:54;;;;;;;24.83;15.33;;;6.50;99.90;;;;;;5042687;28;20238;-64
2021/11/15 12:13:24;;;;;;;27.17;16.50;;;6.50;99.90;;;;;;5047923;28;20483;-64
2021/11/15 12:15:56;;;;;;;27.27;15.43;;;6.50;99.90;;;;;;5047758;28;20249;-65
2021/11/15 12:18:26;;;;;;;29.00;15.47;;;6.50;99.90;;;;;;5048986;28;20206;-63
2021/11/15 12:21:13;;;;;;;25.23;15.50;;;6.50;99.90;;;;;;5045783;28;20198;-64
2021/11/15 12:23:44;;;;;;;26.43;15.43;;;6.50;99.90;;;;;;5044697;28;20565;-64
2021/11/15 12:26:13;;;;;;;24.13;15.30;;;6.50;99.90;;;;;;5048325;28;20305;-65
2021/11/15 12:28:43;;;;;;;25.53;16.67;;;6.50;99.90;;;;;;5045447;28;20206;-63
2021/11/15 12:31:11;;;;;;;29.63;16.77;;;6.50;99.90;;;;;;5048517;28;20275;-64
2021/11/15 12:33:39;;;;;;;29.23;17.47;;;6.40;99.90;;;;;;5047966;28;20206;-64
2021/11/15 12:36:09;;;;;;;25.57;15.57;;;6.40;99.90;;;;;;5043680;28;20245;-64
2021/11/15 12:38:42;;;;;;;28.97;16.63;;;6.40;99.90;;;;;;5048717;28;20206;-65
2021/11/15 12:41:33;;;;;;;27.97;16.93;;;6.40;99.90;;;;;;5048122;28;20236;-63
2021/11/15 12:44:23;;;;;;;26.83;16.07;;;6.40;99.90;;;;;;5049341;28;20676;-63